sensor_id;sensor_type;location;lat;lon;timestamp;temperature;humidity
23371;DHT22;11858;51.056;3.712;2022-08-05T00:01:22;22.60;99.90
23371;DHT22;11858;51.056;3.712;2022-08-05T00:03:48;22.70;99.90
23371;DHT22;11858;51.056;3.712;2022-08-05T00:06:15;22.70;99.90
23371;DHT22;11858;51.056;3.712;2022-08-05T00:08:41;22.60;99.90
23371;DHT22;11858;51.056;3.712;2022-08-05T00:11:12;22.60;99.90
23371;DHT22;11858;51.056;3.712;2022-08-05T00:13:41;22.60;99.90
23371;DHT22;11858;51.056;3.712;2022-08-05T00:16:09;22.80;99.90
23371;DHT22;11858;51.056;3.712;2022-08-05T00:18:36;22.80;99.90
23371;DHT22;11858;51.056;3.712;2022-08-05T00:21:02;22.90;99.90
23371;DHT22;11858;51.056;3.712;2022-08-05T00:23:28;23.00;99.90
23371;DHT22;11858;51.056;3.712;2022-08-05T00:25:54;22.90;99.90
23371;DHT22;11858;51.056;3.712;2022-08-05T00:28:20;22.80;99.90
23371;DHT22;11858;51.056;3.712;2022-08-05T00:30:46;22.80;99.90
23371;DHT22;11858;51.056;3.712;2022-08-05T00:33:12;22.80;99.90
23371;DHT22;11858;51.056;3.712;2022-08-05T00:35:38;22.70;99.90
23371;DHT22;11858;51.056;3.712;2022-08-05T00:38:04;22.70;99.90
23371;DHT22;11858;51.056;3.712;2022-08-05T00:40:29;22.60;99.90
23371;DHT22;11858;51.056;3.712;2022-08-05T00:42:58;22.60;99.90
23371;DHT22;11858;51.056;3.712;2022-08-05T00:45:24;22.60;99.90
23371;DHT22;11858;51.056;3.712;2022-08-05T00:47:50;22.60;99.90
23371;DHT22;11858;51.056;3.712;2022-08-05T00:50:16;22.60;99.90
23371;DHT22;11858;51.056;3.712;2022-08-05T00:52:42;22.60;99.90
23371;DHT22;11858;51.056;3.712;2022-08-05T00:55:08;22.80;99.90
23371;DHT22;11858;51.056;3.712;2022-08-05T00:57:33;22.80;99.90
23371;DHT22;11858;51.056;3.712;2022-08-05T01:00:00;22.70;99.90
23371;DHT22;11858;51.056;3.712;2022-08-05T01:02:26;22.60;99.90
23371;DHT22;11858;51.056;3.712;2022-08-05T01:04:52;22.50;99.90
23371;DHT22;11858;51.056;3.712;2022-08-05T01:07:18;22.60;99.90
23371;DHT22;11858;51.056;3.712;2022-08-05T01:09:44;22.60;99.90
23371;DHT22;11858;51.056;3.712;2022-08-05T01:12:13;22.40;99.90
23371;DHT22;11858;51.056;3.712;2022-08-05T01:15:02;22.40;99.90
23371;DHT22;11858;51.056;3.712;2022-08-05T01:17:37;22.40;99.90
23371;DHT22;11858;51.056;3.712;2022-08-05T01:28:36;22.40;99.90
23371;DHT22;11858;51.056;3.712;2022-08-05T01:33:55;22.30;99.90
23371;DHT22;11858;51.056;3.712;2022-08-05T01:36:28;22.40;99.90
23371;DHT22;11858;51.056;3.712;2022-08-05T01:38:54;22.20;99.90
23371;DHT22;11858;51.056;3.712;2022-08-05T01:41:22;21.90;99.90
23371;DHT22;11858;51.056;3.712;2022-08-05T01:43:50;22.10;99.90
23371;DHT22;11858;51.056;3.712;2022-08-05T01:46:17;22.10;99.90
23371;DHT22;11858;51.056;3.712;2022-08-05T01:48:44;22.20;99.90
23371;DHT22;11858;51.056;3.712;2022-08-05T01:51:13;22.30;99.90
23371;DHT22;11858;51.056;3.712;2022-08-05T01:53:42;22.10;99.90
23371;DHT22;11858;51.056;3.712;2022-08-05T01:56:11;22.10;99.90
23371;DHT22;11858;51.056;3.712;2022-08-05T01:58:39;22.20;99.90
23371;DHT22;11858;51.056;3.712;2022-08-05T02:01:07;22.10;99.90
23371;DHT22;11858;51.056;3.712;2022-08-05T02:03:37;22.10;99.90
23371;DHT22;11858;51.056;3.712;2022-08-05T02:06:06;22.10;99.90
23371;DHT22;11858;51.056;3.712;2022-08-05T02:08:32;22.10;99.90
23371;DHT22;11858;51.056;3.712;2022-08-05T02:11:06;22.30;99.90
23371;DHT22;11858;51.056;3.712;2022-08-05T02:14:00;22.30;99.90
23371;DHT22;11858;51.056;3.712;2022-08-05T02:16:33;22.60;99.90
23371;DHT22;11858;51.056;3.712;2022-08-05T02:22:08;22.50;99.90
23371;DHT22;11858;51.056;3.712;2022-08-05T02:24:40;22.40;99.90
23371;DHT22;11858;51.056;3.712;2022-08-05T02:27:07;22.40;99.90
23371;DHT22;11858;51.056;3.712;2022-08-05T02:29:35;22.40;99.90
23371;DHT22;11858;51.056;3.712;2022-08-05T02:32:03;22.30;99.90
23371;DHT22;11858;51.056;3.712;2022-08-05T02:34:32;22.30;99.90
23371;DHT22;11858;51.056;3.712;2022-08-05T02:37:03;22.30;99.90
23371;DHT22;11858;51.056;3.712;2022-08-05T02:39:33;22.20;99.90
23371;DHT22;11858;51.056;3.712;2022-08-05T02:42:01;22.10;99.90
23371;DHT22;11858;51.056;3.712;2022-08-05T02:44:29;22.20;99.90
23371;DHT22;11858;51.056;3.712;2022-08-05T02:46:57;22.00;99.90
23371;DHT22;11858;51.056;3.712;2022-08-05T02:49:25;22.00;99.90
23371;DHT22;11858;51.056;3.712;2022-08-05T02:51:52;21.90;99.90
23371;DHT22;11858;51.056;3.712;2022-08-05T02:54:20;21.90;99.90
23371;DHT22;11858;51.056;3.712;2022-08-05T02:56:47;21.80;99.90
23371;DHT22;11858;51.056;3.712;2022-08-05T02:59:15;21.70;99.90
23371;DHT22;11858;51.056;3.712;2022-08-05T03:01:42;21.60;99.90
23371;DHT22;11858;51.056;3.712;2022-08-05T03:04:12;21.50;99.90
23371;DHT22;11858;51.056;3.712;2022-08-05T03:06:40;21.50;99.90
23371;DHT22;11858;51.056;3.712;2022-08-05T03:09:07;21.50;99.90
23371;DHT22;11858;51.056;3.712;2022-08-05T03:11:35;21.60;99.90
23371;DHT22;11858;51.056;3.712;2022-08-05T03:14:01;21.60;99.90
23371;DHT22;11858;51.056;3.712;2022-08-05T03:16:27;21.60;99.90
23371;DHT22;11858;51.056;3.712;2022-08-05T03:18:53;21.50;99.90
23371;DHT22;11858;51.056;3.712;2022-08-05T03:21:18;21.70;99.90
23371;DHT22;11858;51.056;3.712;2022-08-05T03:23:44;21.60;99.90
23371;DHT22;11858;51.056;3.712;2022-08-05T03:26:10;21.50;99.90
23371;DHT22;11858;51.056;3.712;2022-08-05T03:28:36;21.40;99.90
23371;DHT22;11858;51.056;3.712;2022-08-05T03:31:03;21.40;99.90
23371;DHT22;11858;51.056;3.712;2022-08-05T03:33:30;21.50;99.90
23371;DHT22;11858;51.056;3.712;2022-08-05T03:35:57;21.40;99.90
23371;DHT22;11858;51.056;3.712;2022-08-05T03:38:25;21.40;99.90
23371;DHT22;11858;51.056;3.712;2022-08-05T03:40:51;21.30;99.90
23371;DHT22;11858;51.056;3.712;2022-08-05T03:43:20;21.10;99.90
23371;DHT22;11858;51.056;3.712;2022-08-05T03:45:50;21.10;99.90
23371;DHT22;11858;51.056;3.712;2022-08-05T03:48:16;20.90;99.90
23371;DHT22;11858;51.056;3.712;2022-08-05T03:51:10;20.90;99.90
23371;DHT22;11858;51.056;3.712;2022-08-05T03:53:59;21.00;99.90
23371;DHT22;11858;51.056;3.712;2022-08-05T03:56:32;20.80;99.90
23371;DHT22;11858;51.056;3.712;2022-08-05T03:59:02;20.80;99.90
23371;DHT22;11858;51.056;3.712;2022-08-05T04:01:30;20.70;99.90
23371;DHT22;11858;51.056;3.712;2022-08-05T04:03:58;20.70;99.90
23371;DHT22;11858;51.056;3.712;2022-08-05T04:06:26;20.60;99.90
23371;DHT22;11858;51.056;3.712;2022-08-05T04:08:53;20.60;99.90
23371;DHT22;11858;51.056;3.712;2022-08-05T04:11:20;20.50;99.90
23371;DHT22;11858;51.056;3.712;2022-08-05T04:13:46;20.40;99.90
23371;DHT22;11858;51.056;3.712;2022-08-05T04:16:13;20.20;99.90
23371;DHT22;11858;51.056;3.712;2022-08-05T04:18:38;20.20;99.90
23371;DHT22;11858;51.056;3.712;2022-08-05T04:21:07;20.30;99.90
23371;DHT22;11858;51.056;3.712;2022-08-05T04:23:34;20.20;99.90
23371;DHT22;11858;51.056;3.712;2022-08-05T04:26:02;20.10;99.90
23371;DHT22;11858;51.056;3.712;2022-08-05T04:28:28;20.00;99.90
23371;DHT22;11858;51.056;3.712;2022-08-05T04:30:54;19.80;99.90
23371;DHT22;11858;51.056;3.712;2022-08-05T04:33:20;19.70;99.90
23371;DHT22;11858;51.056;3.712;2022-08-05T04:35:46;19.60;99.90
23371;DHT22;11858;51.056;3.712;2022-08-05T04:38:12;19.70;99.90
23371;DHT22;11858;51.056;3.712;2022-08-05T04:40:39;19.80;99.90
23371;DHT22;11858;51.056;3.712;2022-08-05T04:43:06;19.90;99.90
23371;DHT22;11858;51.056;3.712;2022-08-05T04:45:32;20.00;99.90
23371;DHT22;11858;51.056;3.712;2022-08-05T04:48:09;20.00;99.90
23371;DHT22;11858;51.056;3.712;2022-08-05T04:50:44;20.00;99.90
23371;DHT22;11858;51.056;3.712;2022-08-05T04:53:11;19.80;99.90
23371;DHT22;11858;51.056;3.712;2022-08-05T04:55:38;19.70;99.90
23371;DHT22;11858;51.056;3.712;2022-08-05T04:58:11;19.80;99.90
23371;DHT22;11858;51.056;3.712;2022-08-05T05:00:38;19.70;99.90
23371;DHT22;11858;51.056;3.712;2022-08-05T05:03:05;19.80;99.90
23371;DHT22;11858;51.056;3.712;2022-08-05T05:05:31;19.80;99.90
23371;DHT22;11858;51.056;3.712;2022-08-05T05:08:08;19.80;99.90
23371;DHT22;11858;51.056;3.712;2022-08-05T05:10:40;20.00;99.90
23371;DHT22;11858;51.056;3.712;2022-08-05T05:13:11;20.00;99.90
23371;DHT22;11858;51.056;3.712;2022-08-05T05:15:37;19.80;99.90
23371;DHT22;11858;51.056;3.712;2022-08-05T05:18:04;19.90;99.90
23371;DHT22;11858;51.056;3.712;2022-08-05T05:20:30;19.70;99.90
23371;DHT22;11858;51.056;3.712;2022-08-05T05:22:57;19.80;99.90
23371;DHT22;11858;51.056;3.712;2022-08-05T05:25:24;19.90;99.90
23371;DHT22;11858;51.056;3.712;2022-08-05T05:27:50;20.00;99.90
23371;DHT22;11858;51.056;3.712;2022-08-05T05:30:19;20.30;99.90
23371;DHT22;11858;51.056;3.712;2022-08-05T05:32:45;20.40;99.90
23371;DHT22;11858;51.056;3.712;2022-08-05T05:35:11;20.40;99.90
23371;DHT22;11858;51.056;3.712;2022-08-05T05:37:56;20.50;99.90
23371;DHT22;11858;51.056;3.712;2022-08-05T05:40:25;20.60;99.90
23371;DHT22;11858;51.056;3.712;2022-08-05T05:42:52;20.60;99.90
23371;DHT22;11858;51.056;3.712;2022-08-05T05:45:18;20.60;99.90
23371;DHT22;11858;51.056;3.712;2022-08-05T05:47:44;20.60;99.90
23371;DHT22;11858;51.056;3.712;2022-08-05T05:50:12;20.90;99.90
23371;DHT22;11858;51.056;3.712;2022-08-05T05:52:39;21.10;99.90
23371;DHT22;11858;51.056;3.712;2022-08-05T05:55:06;21.00;99.90
23371;DHT22;11858;51.056;3.712;2022-08-05T05:57:36;20.90;99.90
23371;DHT22;11858;51.056;3.712;2022-08-05T06:00:05;20.80;99.90
23371;DHT22;11858;51.056;3.712;2022-08-05T06:02:31;20.80;99.90
23371;DHT22;11858;51.056;3.712;2022-08-05T06:04:57;21.20;99.90
23371;DHT22;11858;51.056;3.712;2022-08-05T06:07:23;21.20;99.90
23371;DHT22;11858;51.056;3.712;2022-08-05T06:09:49;21.10;99.90
23371;DHT22;11858;51.056;3.712;2022-08-05T06:12:14;21.00;99.90
23371;DHT22;11858;51.056;3.712;2022-08-05T06:14:40;21.10;99.90
23371;DHT22;11858;51.056;3.712;2022-08-05T06:17:10;21.20;99.90
23371;DHT22;11858;51.056;3.712;2022-08-05T06:19:35;21.30;99.90
23371;DHT22;11858;51.056;3.712;2022-08-05T06:22:06;21.20;99.90
23371;DHT22;11858;51.056;3.712;2022-08-05T06:24:33;21.40;99.90
23371;DHT22;11858;51.056;3.712;2022-08-05T06:26:59;21.50;99.90
23371;DHT22;11858;51.056;3.712;2022-08-05T06:29:25;21.40;99.90
23371;DHT22;11858;51.056;3.712;2022-08-05T06:31:51;21.50;99.90
23371;DHT22;11858;51.056;3.712;2022-08-05T06:34:17;21.60;99.90
23371;DHT22;11858;51.056;3.712;2022-08-05T06:36:43;21.80;99.90
23371;DHT22;11858;51.056;3.712;2022-08-05T06:39:09;21.80;99.90
23371;DHT22;11858;51.056;3.712;2022-08-05T06:41:35;21.60;99.90
23371;DHT22;11858;51.056;3.712;2022-08-05T06:44:01;21.50;99.90
23371;DHT22;11858;51.056;3.712;2022-08-05T06:46:27;21.70;99.90
23371;DHT22;11858;51.056;3.712;2022-08-05T06:48:53;22.00;99.90
23371;DHT22;11858;51.056;3.712;2022-08-05T06:51:19;22.20;99.90
23371;DHT22;11858;51.056;3.712;2022-08-05T06:53:44;22.40;99.90
23371;DHT22;11858;51.056;3.712;2022-08-05T06:56:10;22.60;99.90
23371;DHT22;11858;51.056;3.712;2022-08-05T06:58:36;22.60;99.90
23371;DHT22;11858;51.056;3.712;2022-08-05T07:01:04;22.30;99.90
23371;DHT22;11858;51.056;3.712;2022-08-05T07:03:30;22.30;99.90
23371;DHT22;11858;51.056;3.712;2022-08-05T07:05:57;22.50;99.90
23371;DHT22;11858;51.056;3.712;2022-08-05T07:08:23;22.60;99.90
23371;DHT22;11858;51.056;3.712;2022-08-05T07:10:53;22.80;99.90
23371;DHT22;11858;51.056;3.712;2022-08-05T07:13:22;22.70;99.90
23371;DHT22;11858;51.056;3.712;2022-08-05T07:16:07;22.90;99.90
23371;DHT22;11858;51.056;3.712;2022-08-05T07:18:52;23.00;99.90
23371;DHT22;11858;51.056;3.712;2022-08-05T07:21:17;23.20;99.90
23371;DHT22;11858;51.056;3.712;2022-08-05T07:23:43;23.30;99.90
23371;DHT22;11858;51.056;3.712;2022-08-05T07:26:09;23.40;99.90
23371;DHT22;11858;51.056;3.712;2022-08-05T07:28:35;23.50;99.90
23371;DHT22;11858;51.056;3.712;2022-08-05T07:31:01;23.70;99.90
23371;DHT22;11858;51.056;3.712;2022-08-05T07:33:27;23.70;99.90
23371;DHT22;11858;51.056;3.712;2022-08-05T07:35:52;24.00;99.90
23371;DHT22;11858;51.056;3.712;2022-08-05T07:38:18;24.10;99.90
23371;DHT22;11858;51.056;3.712;2022-08-05T07:40:45;24.00;99.90
23371;DHT22;11858;51.056;3.712;2022-08-05T07:43:11;24.00;99.90
23371;DHT22;11858;51.056;3.712;2022-08-05T07:45:39;23.90;99.90
23371;DHT22;11858;51.056;3.712;2022-08-05T07:48:06;23.90;99.90
23371;DHT22;11858;51.056;3.712;2022-08-05T07:50:32;24.00;99.90
23371;DHT22;11858;51.056;3.712;2022-08-05T07:52:59;24.00;99.90
23371;DHT22;11858;51.056;3.712;2022-08-05T07:55:25;24.00;99.90
23371;DHT22;11858;51.056;3.712;2022-08-05T07:57:51;24.20;99.90
23371;DHT22;11858;51.056;3.712;2022-08-05T08:00:17;24.30;99.90
23371;DHT22;11858;51.056;3.712;2022-08-05T08:02:43;24.50;99.90
23371;DHT22;11858;51.056;3.712;2022-08-05T08:05:09;24.90;99.90
23371;DHT22;11858;51.056;3.712;2022-08-05T08:07:35;25.70;99.90
23371;DHT22;11858;51.056;3.712;2022-08-05T08:10:02;26.30;99.90
23371;DHT22;11858;51.056;3.712;2022-08-05T08:12:29;27.00;99.90
23371;DHT22;11858;51.056;3.712;2022-08-05T08:14:55;27.80;99.90
23371;DHT22;11858;51.056;3.712;2022-08-05T08:17:21;28.60;99.90
23371;DHT22;11858;51.056;3.712;2022-08-05T08:19:47;29.00;99.70
23371;DHT22;11858;51.056;3.712;2022-08-05T08:22:13;29.50;97.80
23371;DHT22;11858;51.056;3.712;2022-08-05T08:24:39;30.00;96.50
23371;DHT22;11858;51.056;3.712;2022-08-05T08:27:05;30.40;92.90
23371;DHT22;11858;51.056;3.712;2022-08-05T08:29:31;30.70;90.50
23371;DHT22;11858;51.056;3.712;2022-08-05T08:31:57;30.80;85.60
23371;DHT22;11858;51.056;3.712;2022-08-05T08:34:25;31.00;84.10
23371;DHT22;11858;51.056;3.712;2022-08-05T08:36:52;31.30;83.80
23371;DHT22;11858;51.056;3.712;2022-08-05T08:39:19;31.80;84.40
23371;DHT22;11858;51.056;3.712;2022-08-05T08:41:48;32.30;81.50
23371;DHT22;11858;51.056;3.712;2022-08-05T08:44:18;32.40;79.00
23371;DHT22;11858;51.056;3.712;2022-08-05T08:46:46;32.00;80.10
23371;DHT22;11858;51.056;3.712;2022-08-05T08:49:18;31.30;81.10
23371;DHT22;11858;51.056;3.712;2022-08-05T08:52:07;30.20;82.60
23371;DHT22;11858;51.056;3.712;2022-08-05T08:54:36;29.20;86.20
23371;DHT22;11858;51.056;3.712;2022-08-05T08:57:06;28.30;90.60
23371;DHT22;11858;51.056;3.712;2022-08-05T08:59:34;28.20;91.70
23371;DHT22;11858;51.056;3.712;2022-08-05T09:02:04;28.10;92.00
23371;DHT22;11858;51.056;3.712;2022-08-05T09:04:34;28.40;91.80
23371;DHT22;11858;51.056;3.712;2022-08-05T09:07:04;29.00;91.00
23371;DHT22;11858;51.056;3.712;2022-08-05T09:09:34;30.10;87.80
23371;DHT22;11858;51.056;3.712;2022-08-05T09:12:01;31.30;82.60
23371;DHT22;11858;51.056;3.712;2022-08-05T09:14:27;32.00;79.00
23371;DHT22;11858;51.056;3.712;2022-08-05T09:16:53;33.30;73.00
23371;DHT22;11858;51.056;3.712;2022-08-05T09:19:19;34.40;69.70
23371;DHT22;11858;51.056;3.712;2022-08-05T09:21:45;35.20;64.80
23371;DHT22;11858;51.056;3.712;2022-08-05T09:24:11;36.30;63.00
23371;DHT22;11858;51.056;3.712;2022-08-05T09:26:37;36.50;58.90
23371;DHT22;11858;51.056;3.712;2022-08-05T09:29:05;37.20;57.10
23371;DHT22;11858;51.056;3.712;2022-08-05T09:31:33;37.60;55.80
23371;DHT22;11858;51.056;3.712;2022-08-05T09:34:07;38.60;54.20
23371;DHT22;11858;51.056;3.712;2022-08-05T09:39:11;39.30;50.60
23371;DHT22;11858;51.056;3.712;2022-08-05T09:42:03;37.60;52.90
23371;DHT22;11858;51.056;3.712;2022-08-05T09:44:42;37.10;54.30
23371;DHT22;11858;51.056;3.712;2022-08-05T09:47:25;36.00;55.10
23371;DHT22;11858;51.056;3.712;2022-08-05T09:49:52;34.30;57.10
23371;DHT22;11858;51.056;3.712;2022-08-05T09:52:33;33.00;59.60
23371;DHT22;11858;51.056;3.712;2022-08-05T09:55:03;32.60;61.30
23371;DHT22;11858;51.056;3.712;2022-08-05T09:57:40;33.30;61.20
23371;DHT22;11858;51.056;3.712;2022-08-05T10:02:48;33.60;60.60
23371;DHT22;11858;51.056;3.712;2022-08-05T10:05:19;33.70;61.00
23371;DHT22;11858;51.056;3.712;2022-08-05T10:07:50;34.10;59.90
23371;DHT22;11858;51.056;3.712;2022-08-05T10:10:20;34.60;59.20
23371;DHT22;11858;51.056;3.712;2022-08-05T10:12:54;35.40;57.70
23371;DHT22;11858;51.056;3.712;2022-08-05T10:18:18;36.80;55.20
23371;DHT22;11858;51.056;3.712;2022-08-05T10:20:56;37.20;54.00
23371;DHT22;11858;51.056;3.712;2022-08-05T10:23:41;37.20;53.00
23371;DHT22;11858;51.056;3.712;2022-08-05T10:26:08;36.30;53.90
23371;DHT22;11858;51.056;3.712;2022-08-05T10:28:36;34.90;55.50
23371;DHT22;11858;51.056;3.712;2022-08-05T10:31:03;34.30;57.00
23371;DHT22;11858;51.056;3.712;2022-08-05T10:33:31;34.40;57.20
23371;DHT22;11858;51.056;3.712;2022-08-05T10:35:58;35.40;56.00
23371;DHT22;11858;51.056;3.712;2022-08-05T10:38:26;36.60;53.60
23371;DHT22;11858;51.056;3.712;2022-08-05T10:41:16;36.50;53.00
23371;DHT22;11858;51.056;3.712;2022-08-05T10:43:58;36.60;52.40
23371;DHT22;11858;51.056;3.712;2022-08-05T10:46:42;36.30;52.60
23371;DHT22;11858;51.056;3.712;2022-08-05T10:49:08;34.90;53.70
23371;DHT22;11858;51.056;3.712;2022-08-05T10:54:07;33.10;56.70
23371;DHT22;11858;51.056;3.712;2022-08-05T10:56:50;34.10;56.70
23371;DHT22;11858;51.056;3.712;2022-08-05T10:59:23;35.40;54.00
23371;DHT22;11858;51.056;3.712;2022-08-05T11:02:09;36.10;52.70
23371;DHT22;11858;51.056;3.712;2022-08-05T11:04:46;36.60;52.00
23371;DHT22;11858;51.056;3.712;2022-08-05T11:07:13;37.30;50.90
23371;DHT22;11858;51.056;3.712;2022-08-05T11:09:45;37.40;51.30
23371;DHT22;11858;51.056;3.712;2022-08-05T11:15:18;39.70;47.80
23371;DHT22;11858;51.056;3.712;2022-08-05T11:17:54;39.00;47.30
23371;DHT22;11858;51.056;3.712;2022-08-05T11:28:44;37.70;48.60
23371;DHT22;11858;51.056;3.712;2022-08-05T11:33:51;38.40;47.40
23371;DHT22;11858;51.056;3.712;2022-08-05T11:36:19;39.40;46.20
23371;DHT22;11858;51.056;3.712;2022-08-05T11:41:23;40.50;44.00
23371;DHT22;11858;51.056;3.712;2022-08-05T11:46:30;39.50;44.80
23371;DHT22;11858;51.056;3.712;2022-08-05T11:48:57;38.20;45.60
23371;DHT22;11858;51.056;3.712;2022-08-05T11:51:25;37.70;45.90
23371;DHT22;11858;51.056;3.712;2022-08-05T11:53:52;38.90;45.80
23371;DHT22;11858;51.056;3.712;2022-08-05T11:56:18;38.60;45.30
23371;DHT22;11858;51.056;3.712;2022-08-05T11:58:45;36.70;46.50
23371;DHT22;11858;51.056;3.712;2022-08-05T12:01:13;36.30;48.60
23371;DHT22;11858;51.056;3.712;2022-08-05T12:03:47;36.90;48.20
23371;DHT22;11858;51.056;3.712;2022-08-05T12:06:15;37.80;46.60
23371;DHT22;11858;51.056;3.712;2022-08-05T12:08:47;38.60;45.30
23371;DHT22;11858;51.056;3.712;2022-08-05T12:11:22;39.80;44.30
23371;DHT22;11858;51.056;3.712;2022-08-05T12:14:14;39.90;44.40
23371;DHT22;11858;51.056;3.712;2022-08-05T12:16:42;40.20;44.20
23371;DHT22;11858;51.056;3.712;2022-08-05T12:19:10;40.60;43.50
23371;DHT22;11858;51.056;3.712;2022-08-05T12:21:43;40.60;42.40
23371;DHT22;11858;51.056;3.712;2022-08-05T12:24:20;41.30;42.10
23371;DHT22;11858;51.056;3.712;2022-08-05T12:26:49;42.20;40.70
23371;DHT22;11858;51.056;3.712;2022-08-05T12:31:52;41.90;40.30
23371;DHT22;11858;51.056;3.712;2022-08-05T12:34:20;40.90;41.00
23371;DHT22;11858;51.056;3.712;2022-08-05T12:36:49;39.50;42.50
23371;DHT22;11858;51.056;3.712;2022-08-05T12:39:16;38.60;42.70
23371;DHT22;11858;51.056;3.712;2022-08-05T12:41:42;37.50;43.30
23371;DHT22;11858;51.056;3.712;2022-08-05T12:44:10;36.00;45.00
23371;DHT22;11858;51.056;3.712;2022-08-05T12:46:38;34.90;47.50
23371;DHT22;11858;51.056;3.712;2022-08-05T12:49:12;35.00;48.40
23371;DHT22;11858;51.056;3.712;2022-08-05T12:54:34;35.30;47.00
23371;DHT22;11858;51.056;3.712;2022-08-05T12:57:07;36.50;46.70
23371;DHT22;11858;51.056;3.712;2022-08-05T12:59:54;37.70;45.50
23371;DHT22;11858;51.056;3.712;2022-08-05T13:02:26;39.20;43.80
23371;DHT22;11858;51.056;3.712;2022-08-05T13:04:53;40.10;42.40
23371;DHT22;11858;51.056;3.712;2022-08-05T13:07:21;40.80;41.40
23371;DHT22;11858;51.056;3.712;2022-08-05T13:12:17;40.80;42.10
23371;DHT22;11858;51.056;3.712;2022-08-05T13:14:44;40.70;41.00
23371;DHT22;11858;51.056;3.712;2022-08-05T13:17:17;40.00;41.90
23371;DHT22;11858;51.056;3.712;2022-08-05T13:22:29;41.70;40.40
23371;DHT22;11858;51.056;3.712;2022-08-05T13:25:06;41.70;39.80
23371;DHT22;11858;51.056;3.712;2022-08-05T13:27:40;41.40;39.80
23371;DHT22;11858;51.056;3.712;2022-08-05T13:30:11;42.10;39.40
23371;DHT22;11858;51.056;3.712;2022-08-05T13:32:37;41.10;39.70
23371;DHT22;11858;51.056;3.712;2022-08-05T13:35:03;40.60;39.80
23371;DHT22;11858;51.056;3.712;2022-08-05T13:37:30;39.90;40.80
23371;DHT22;11858;51.056;3.712;2022-08-05T13:39:56;40.10;41.10
23371;DHT22;11858;51.056;3.712;2022-08-05T13:42:22;40.20;40.80
23371;DHT22;11858;51.056;3.712;2022-08-05T13:44:52;40.20;40.50
23371;DHT22;11858;51.056;3.712;2022-08-05T13:47:19;40.20;40.60
23371;DHT22;11858;51.056;3.712;2022-08-05T13:49:45;38.80;40.30
23371;DHT22;11858;51.056;3.712;2022-08-05T13:52:22;36.50;42.60
23371;DHT22;11858;51.056;3.712;2022-08-05T13:54:51;35.10;44.30
23371;DHT22;11858;51.056;3.712;2022-08-05T13:57:17;34.40;45.90
23371;DHT22;11858;51.056;3.712;2022-08-05T13:59:43;34.80;47.10
23371;DHT22;11858;51.056;3.712;2022-08-05T14:02:11;35.60;45.90
23371;DHT22;11858;51.056;3.712;2022-08-05T14:04:40;36.20;44.90
23371;DHT22;11858;51.056;3.712;2022-08-05T14:07:30;37.20;44.80
23371;DHT22;11858;51.056;3.712;2022-08-05T14:09:58;37.40;44.70
23371;DHT22;11858;51.056;3.712;2022-08-05T14:12:24;37.00;43.70
23371;DHT22;11858;51.056;3.712;2022-08-05T14:14:50;36.10;45.40
23371;DHT22;11858;51.056;3.712;2022-08-05T14:17:16;35.00;46.00
23371;DHT22;11858;51.056;3.712;2022-08-05T14:19:43;33.90;47.40
23371;DHT22;11858;51.056;3.712;2022-08-05T14:22:09;34.30;48.10
23371;DHT22;11858;51.056;3.712;2022-08-05T14:24:35;35.40;47.10
23371;DHT22;11858;51.056;3.712;2022-08-05T14:27:02;36.20;45.50
23371;DHT22;11858;51.056;3.712;2022-08-05T14:29:28;35.60;45.90
23371;DHT22;11858;51.056;3.712;2022-08-05T14:31:54;34.80;47.30
23371;DHT22;11858;51.056;3.712;2022-08-05T14:34:20;34.20;48.60
23371;DHT22;11858;51.056;3.712;2022-08-05T14:36:46;33.40;48.70
23371;DHT22;11858;51.056;3.712;2022-08-05T14:39:12;33.00;50.00
23371;DHT22;11858;51.056;3.712;2022-08-05T14:41:38;33.90;49.30
23371;DHT22;11858;51.056;3.712;2022-08-05T14:44:04;35.30;48.60
23371;DHT22;11858;51.056;3.712;2022-08-05T14:46:30;36.70;47.30
23371;DHT22;11858;51.056;3.712;2022-08-05T14:48:58;37.50;46.00
23371;DHT22;11858;51.056;3.712;2022-08-05T14:51:24;38.50;44.60
23371;DHT22;11858;51.056;3.712;2022-08-05T14:53:50;38.90;44.30
23371;DHT22;11858;51.056;3.712;2022-08-05T14:56:16;38.90;44.70
23371;DHT22;11858;51.056;3.712;2022-08-05T14:58:42;39.00;44.30
23371;DHT22;11858;51.056;3.712;2022-08-05T15:01:08;38.90;43.90
23371;DHT22;11858;51.056;3.712;2022-08-05T15:03:35;37.70;44.40
23371;DHT22;11858;51.056;3.712;2022-08-05T15:06:02;36.40;46.40
23371;DHT22;11858;51.056;3.712;2022-08-05T15:08:29;35.60;47.10
23371;DHT22;11858;51.056;3.712;2022-08-05T15:10:55;35.60;47.70
23371;DHT22;11858;51.056;3.712;2022-08-05T15:13:20;36.20;47.20
23371;DHT22;11858;51.056;3.712;2022-08-05T15:15:46;36.50;46.30
23371;DHT22;11858;51.056;3.712;2022-08-05T15:18:13;36.90;45.60
23371;DHT22;11858;51.056;3.712;2022-08-05T15:20:39;37.10;45.70
23371;DHT22;11858;51.056;3.712;2022-08-05T15:23:09;36.90;45.70
23371;DHT22;11858;51.056;3.712;2022-08-05T15:25:36;35.40;46.60
23371;DHT22;11858;51.056;3.712;2022-08-05T15:28:04;34.80;47.90
23371;DHT22;11858;51.056;3.712;2022-08-05T15:30:31;35.30;47.50
23371;DHT22;11858;51.056;3.712;2022-08-05T15:32:59;34.00;48.40
23371;DHT22;11858;51.056;3.712;2022-08-05T15:35:25;32.60;50.00
23371;DHT22;11858;51.056;3.712;2022-08-05T15:37:52;31.90;50.90
23371;DHT22;11858;51.056;3.712;2022-08-05T15:40:17;32.00;52.00
23371;DHT22;11858;51.056;3.712;2022-08-05T15:42:44;31.90;52.60
23371;DHT22;11858;51.056;3.712;2022-08-05T15:45:10;32.50;51.80
23371;DHT22;11858;51.056;3.712;2022-08-05T15:47:37;33.50;50.40
23371;DHT22;11858;51.056;3.712;2022-08-05T15:50:04;34.40;49.40
23371;DHT22;11858;51.056;3.712;2022-08-05T15:52:30;34.90;48.60
23371;DHT22;11858;51.056;3.712;2022-08-05T15:54:58;35.40;48.20
23371;DHT22;11858;51.056;3.712;2022-08-05T15:57:24;36.20;47.00
23371;DHT22;11858;51.056;3.712;2022-08-05T15:59:50;36.10;46.40
23371;DHT22;11858;51.056;3.712;2022-08-05T16:02:16;35.60;46.30
23371;DHT22;11858;51.056;3.712;2022-08-05T16:04:42;35.50;46.90
23371;DHT22;11858;51.056;3.712;2022-08-05T16:07:09;35.20;46.70
23371;DHT22;11858;51.056;3.712;2022-08-05T16:09:35;35.00;47.00
23371;DHT22;11858;51.056;3.712;2022-08-05T16:12:01;35.00;47.00
23371;DHT22;11858;51.056;3.712;2022-08-05T16:14:27;34.90;47.40
23371;DHT22;11858;51.056;3.712;2022-08-05T16:16:53;35.30;46.70
23371;DHT22;11858;51.056;3.712;2022-08-05T16:19:19;35.20;46.10
23371;DHT22;11858;51.056;3.712;2022-08-05T16:21:45;34.80;46.50
23371;DHT22;11858;51.056;3.712;2022-08-05T16:24:10;34.80;46.30
23371;DHT22;11858;51.056;3.712;2022-08-05T16:27:08;34.70;46.10
23371;DHT22;11858;51.056;3.712;2022-08-05T16:29:35;34.60;46.50
23371;DHT22;11858;51.056;3.712;2022-08-05T16:32:01;35.00;46.00
23371;DHT22;11858;51.056;3.712;2022-08-05T16:34:26;35.30;45.30